Time;durP1;ratioP1;P1;durP2;ratioP2;P2;SDS_P1;SDS_P2;PMS_P1;PMS_P2;Temp;Humidity;BMP_temperature;BMP_pressure;BME280_temperature;BME280_humidity;BME280_pressure;Samples;Min_cycle;Max_cycle;Signal;HPM_P1;HPM_P2
2023/05/28 00:00:10;;;;;;;9.85;4.18;;;;;;;;;;4990791;28;20530;-61
2023/05/28 00:02:35;;;;;;;11.20;4.43;;;;;;;;;;4989206;28;20424;-61
2023/05/28 00:05:01;;;;;;;9.05;4.20;;;;;;;;;;4991227;28;20057;-61
2023/05/28 00:07:28;;;;;;;9.23;4.05;;;;;;;;;;4994136;28;20034;-61
2023/05/28 00:10:03;;;;;;;9.00;3.90;;;;;;;;;;4994317;28;20117;-61
2023/05/28 00:12:28;;;;;;;10.32;4.32;;;;;;;;;;4992938;28;20630;-60
2023/05/28 00:14:54;;;;;;;8.43;4.25;;;;;;;;;;4993611;28;20518;-61
2023/05/28 00:17:21;;;;;;;8.40;4.47;;;;;;;;;;4993406;28;20088;-61
2023/05/28 00:19:46;;;;;;;9.73;4.15;;;;;;;;;;4993602;28;20178;-60
2023/05/28 00:22:12;;;;;;;8.90;4.20;;;;;;;;;;4991020;28;20034;-61
2023/05/28 00:24:37;;;;;;;10.30;4.30;;;;;;;;;;4994063;28;20061;-61
2023/05/28 00:27:03;;;;;;;12.30;4.50;;;;;;;;;;4993097;28;20042;-60
2023/05/28 00:29:29;;;;;;;12.40;4.50;;;;;;;;;;4994916;28;20040;-59
2023/05/28 00:31:57;;;;;;;8.43;4.05;;;;;;;;;;4993079;28;20037;-60
2023/05/28 00:34:24;;;;;;;11.32;3.97;;;;;;;;;;4992904;28;20443;-59
2023/05/28 00:36:49;;;;;;;10.35;4.45;;;;;;;;;;4994318;28;20042;-60
2023/05/28 00:39:16;;;;;;;10.55;4.60;;;;;;;;;;4993556;28;20057;-60
2023/05/28 00:41:41;;;;;;;14.13;4.72;;;;;;;;;;4992180;28;20058;-60
2023/05/28 00:44:08;;;;;;;13.43;4.40;;;;;;;;;;4994782;28;20538;-59
2023/05/28 00:46:35;;;;;;;9.07;4.38;;;;;;;;;;4994776;28;20109;-61
2023/05/28 00:49:01;;;;;;;9.25;4.55;;;;;;;;;;4991029;28;20229;-59
2023/05/28 00:51:26;;;;;;;9.95;4.75;;;;;;;;;;4990437;28;20641;-60
2023/05/28 00:53:53;;;;;;;11.30;5.00;;;;;;;;;;4992370;28;20113;-61
2023/05/28 00:56:18;;;;;;;9.35;4.75;;;;;;;;;;4992747;28;20031;-59
2023/05/28 00:58:48;;;;;;;11.00;4.53;;;;;;;;;;4994780;28;20386;-60
2023/05/28 01:01:13;;;;;;;11.32;4.63;;;;;;;;;;4992904;28;20112;-61
2023/05/28 01:03:39;;;;;;;10.10;4.47;;;;;;;;;;4991228;28;20121;-60
2023/05/28 01:06:11;;;;;;;10.60;5.00;;;;;;;;;;4991856;28;20386;-59
2023/05/28 01:08:38;;;;;;;9.80;4.75;;;;;;;;;;4994332;28;20113;-60
2023/05/28 01:11:16;;;;;;;9.50;4.72;;;;;;;;;;4993382;28;20049;-60
2023/05/28 01:13:42;;;;;;;11.25;4.90;;;;;;;;;;4979846;28;20475;-59
2023/05/28 01:16:09;;;;;;;11.93;4.68;;;;;;;;;;4993476;28;20098;-60
2023/05/28 01:18:37;;;;;;;10.27;5.20;;;;;;;;;;4992150;28;20471;-59
2023/05/28 01:21:03;;;;;;;12.10;5.22;;;;;;;;;;4991046;28;20386;-61
2023/05/28 01:23:29;;;;;;;12.35;5.28;;;;;;;;;;4991243;28;20523;-61
2023/05/28 01:25:56;;;;;;;9.20;5.15;;;;;;;;;;4994108;28;20121;-60
2023/05/28 01:28:22;;;;;;;10.88;5.22;;;;;;;;;;4991078;28;20034;-61
2023/05/28 01:30:47;;;;;;;14.35;5.35;;;;;;;;;;4993281;28;20022;-59
2023/05/28 01:33:13;;;;;;;13.13;5.20;;;;;;;;;;4992629;28;20450;-59
2023/05/28 01:35:39;;;;;;;11.38;5.00;;;;;;;;;;4992046;28;20129;-59
2023/05/28 01:38:06;;;;;;;10.57;5.07;;;;;;;;;;4993249;28;20022;-59
2023/05/28 01:40:33;;;;;;;10.18;4.60;;;;;;;;;;4991874;28;20096;-60
2023/05/28 01:42:59;;;;;;;10.50;5.22;;;;;;;;;;4992139;28;20045;-59
2023/05/28 01:45:26;;;;;;;12.07;5.10;;;;;;;;;;4975573;28;20066;-59
2023/05/28 01:47:53;;;;;;;12.07;5.75;;;;;;;;;;4991921;28;20049;-59
2023/05/28 01:50:18;;;;;;;11.13;5.15;;;;;;;;;;4990981;28;20038;-60
2023/05/28 01:52:44;;;;;;;11.00;5.35;;;;;;;;;;4992779;28;20084;-59
2023/05/28 01:55:11;;;;;;;13.05;5.30;;;;;;;;;;4993930;28;20042;-59
2023/05/28 01:57:38;;;;;;;12.70;5.45;;;;;;;;;;4979224;28;20390;-59
2023/05/28 02:00:06;;;;;;;11.18;5.20;;;;;;;;;;4974566;28;20041;-60
2023/05/28 02:02:31;;;;;;;10.23;5.43;;;;;;;;;;4990450;28;20719;-59
2023/05/28 02:04:57;;;;;;;10.18;5.47;;;;;;;;;;4993645;28;20101;-61
2023/05/28 02:07:22;;;;;;;10.90;5.90;;;;;;;;;;4990897;28;20042;-61
2023/05/28 02:09:48;;;;;;;12.63;5.38;;;;;;;;;;4993186;28;20073;-60
2023/05/28 02:12:13;;;;;;;11.40;5.03;;;;;;;;;;4990442;28;20438;-59
2023/05/28 02:14:38;;;;;;;10.70;5.75;;;;;;;;;;4992601;28;20026;-60
2023/05/28 02:17:04;;;;;;;12.75;5.75;;;;;;;;;;4991637;28;20038;-61
2023/05/28 02:19:29;;;;;;;10.82;5.55;;;;;;;;;;4990206;28;20030;-60
2023/05/28 02:21:55;;;;;;;12.10;5.75;;;;;;;;;;4989327;28;20053;-59
2023/05/28 02:24:21;;;;;;;12.82;5.78;;;;;;;;;;4992786;28;20037;-61
2023/05/28 02:26:47;;;;;;;11.90;5.85;;;;;;;;;;4990999;28;20388;-62
2023/05/28 02:29:12;;;;;;;12.18;5.78;;;;;;;;;;4992587;28;20372;-59
2023/05/28 02:31:38;;;;;;;9.13;5.50;;;;;;;;;;4990982;28;20459;-61
2023/05/28 02:34:03;;;;;;;11.65;5.75;;;;;;;;;;4992038;28;20034;-60
2023/05/28 02:36:29;;;;;;;11.30;5.35;;;;;;;;;;4992604;28;20037;-60
2023/05/28 02:38:55;;;;;;;12.75;5.93;;;;;;;;;;4991370;28;20435;-60
2023/05/28 02:41:20;;;;;;;11.57;6.05;;;;;;;;;;4987267;28;20521;-60
2023/05/28 02:43:46;;;;;;;14.43;6.47;;;;;;;;;;4992200;28;20085;-59
2023/05/28 02:46:11;;;;;;;10.82;5.60;;;;;;;;;;4992287;28;20045;-60
2023/05/28 02:48:37;;;;;;;11.07;5.63;;;;;;;;;;4992384;28;20022;-61
2023/05/28 02:51:02;;;;;;;13.55;5.95;;;;;;;;;;4990537;28;20069;-59
2023/05/28 02:53:31;;;;;;;11.48;5.82;;;;;;;;;;4990220;28;20092;-60
2023/05/28 02:55:56;;;;;;;13.07;5.78;;;;;;;;;;4986918;28;20526;-59
2023/05/28 02:58:23;;;;;;;11.15;6.10;;;;;;;;;;4990323;28;20038;-59
2023/05/28 03:00:49;;;;;;;12.82;5.65;;;;;;;;;;4991449;28;20403;-59
2023/05/28 03:03:14;;;;;;;11.82;6.07;;;;;;;;;;4987925;28;20041;-59
2023/05/28 03:05:41;;;;;;;13.10;6.35;;;;;;;;;;4989463;28;20038;-60
2023/05/28 03:08:06;;;;;;;15.10;6.30;;;;;;;;;;4990632;28;20035;-60
2023/05/28 03:10:32;;;;;;;13.52;6.30;;;;;;;;;;4991485;28;20034;-59
2023/05/28 03:12:57;;;;;;;12.90;5.82;;;;;;;;;;4988317;28;20506;-59
2023/05/28 03:15:26;;;;;;;14.57;5.93;;;;;;;;;;4991123;28;20399;-60
2023/05/28 03:17:54;;;;;;;12.75;6.03;;;;;;;;;;4988498;28;20053;-59
2023/05/28 03:20:20;;;;;;;12.75;6.10;;;;;;;;;;4988461;28;20077;-61
2023/05/28 03:22:48;;;;;;;11.70;5.80;;;;;;;;;;4990370;28;20053;-60
2023/05/28 03:25:14;;;;;;;14.50;6.25;;;;;;;;;;4992546;28;20110;-60
2023/05/28 03:27:39;;;;;;;13.75;6.38;;;;;;;;;;4989447;28;20126;-60
2023/05/28 03:30:07;;;;;;;13.85;6.55;;;;;;;;;;4989442;28;20037;-60
2023/05/28 03:32:32;;;;;;;15.30;7.03;;;;;;;;;;4987254;28;20038;-60
2023/05/28 03:34:58;;;;;;;14.50;6.72;;;;;;;;;;4992473;28;20412;-60
2023/05/28 03:37:26;;;;;;;14.65;6.65;;;;;;;;;;4988746;28;20034;-60
2023/05/28 03:39:51;;;;;;;11.52;6.15;;;;;;;;;;4990650;28;20505;-60
2023/05/28 03:42:17;;;;;;;16.92;6.68;;;;;;;;;;4990161;28;20038;-60
2023/05/28 03:44:42;;;;;;;13.93;6.75;;;;;;;;;;4990022;28;20068;-60
2023/05/28 03:47:08;;;;;;;13.63;7.25;;;;;;;;;;4991438;28;20023;-60
2023/05/28 03:49:33;;;;;;;14.52;6.75;;;;;;;;;;4989587;28;20038;-60
2023/05/28 03:51:58;;;;;;;12.70;6.55;;;;;;;;;;4989783;28;20093;-59
2023/05/28 03:54:24;;;;;;;10.45;5.88;;;;;;;;;;4991381;28;20026;-60
2023/05/28 03:56:49;;;;;;;13.75;6.72;;;;;;;;;;4992227;28;20062;-60
2023/05/28 03:59:14;;;;;;;12.45;6.53;;;;;;;;;;4987444;28;20035;-60
2023/05/28 04:01:40;;;;;;;13.10;6.05;;;;;;;;;;4988920;28;20197;-60
2023/05/28 04:04:05;;;;;;;15.43;6.63;;;;;;;;;;4990754;28;20094;-59
2023/05/28 04:06:32;;;;;;;11.98;5.90;;;;;;;;;;4987350;28;20375;-60
2023/05/28 04:08:57;;;;;;;15.13;6.35;;;;;;;;;;4989690;28;20038;-59
2023/05/28 04:11:24;;;;;;;15.20;6.68;;;;;;;;;;4988484;28;20042;-60
2023/05/28 04:13:50;;;;;;;12.93;6.63;;;;;;;;;;4991640;28;20041;-59
2023/05/28 04:16:16;;;;;;;14.43;6.35;;;;;;;;;;4989619;28;20034;-59
2023/05/28 04:18:41;;;;;;;10.38;6.38;;;;;;;;;;4988876;28;20555;-59
2023/05/28 04:21:07;;;;;;;17.13;7.30;;;;;;;;;;4991924;28;20026;-59
2023/05/28 04:23:32;;;;;;;14.68;7.18;;;;;;;;;;4990897;28;20081;-59
2023/05/28 04:25:58;;;;;;;13.63;6.38;;;;;;;;;;4990002;28;20034;-59
2023/05/28 04:28:27;;;;;;;13.63;6.55;;;;;;;;;;4988179;28;20034;-60
2023/05/28 04:30:54;;;;;;;12.13;6.35;;;;;;;;;;4989502;28;20497;-59
2023/05/28 04:33:20;;;;;;;12.18;6.40;;;;;;;;;;4990420;28;20042;-60
2023/05/28 04:35:46;;;;;;;14.88;7.10;;;;;;;;;;4990814;28;20041;-60
2023/05/28 04:38:12;;;;;;;15.25;6.43;;;;;;;;;;4990135;28;20042;-60
2023/05/28 04:40:37;;;;;;;19.20;7.15;;;;;;;;;;4990017;28;20079;-60
2023/05/28 04:43:03;;;;;;;12.15;6.32;;;;;;;;;;4989161;28;20467;-59
2023/05/28 04:45:28;;;;;;;18.10;7.10;;;;;;;;;;4990101;28;20102;-60
2023/05/28 04:47:54;;;;;;;11.70;6.53;;;;;;;;;;4987326;28;20041;-60
2023/05/28 04:50:19;;;;;;;13.93;6.53;;;;;;;;;;4989701;28;20038;-60
2023/05/28 04:52:45;;;;;;;11.05;6.75;;;;;;;;;;4992673;28;20152;-60
2023/05/28 04:55:12;;;;;;;14.07;7.18;;;;;;;;;;4995149;28;20042;-59
2023/05/28 04:57:37;;;;;;;13.40;6.57;;;;;;;;;;4993266;28;20033;-59
2023/05/28 05:00:03;;;;;;;12.77;6.18;;;;;;;;;;4994311;28;20038;-59
2023/05/28 05:02:29;;;;;;;12.13;7.00;;;;;;;;;;4993148;28;20048;-60
2023/05/28 05:04:56;;;;;;;13.35;6.80;;;;;;;;;;4990022;28;20049;-59
2023/05/28 05:07:22;;;;;;;10.93;6.80;;;;;;;;;;4989512;28;20038;-59
2023/05/28 05:09:47;;;;;;;12.18;6.50;;;;;;;;;;4992094;28;20088;-60
2023/05/28 05:12:13;;;;;;;13.23;6.70;;;;;;;;;;4992904;28;20382;-61
2023/05/28 05:14:39;;;;;;;12.82;7.00;;;;;;;;;;4991201;28;20031;-61
2023/05/28 05:17:08;;;;;;;12.18;6.18;;;;;;;;;;4992616;28;20031;-60
2023/05/28 05:19:33;;;;;;;11.05;6.60;;;;;;;;;;4992326;28;20034;-59
2023/05/28 05:22:00;;;;;;;12.63;6.78;;;;;;;;;;4991635;28;20372;-61
2023/05/28 05:24:25;;;;;;;12.27;6.65;;;;;;;;;;4982229;28;20062;-59
2023/05/28 05:26:50;;;;;;;15.32;7.25;;;;;;;;;;4977503;28;20134;-59
2023/05/28 05:29:16;;;;;;;13.85;6.80;;;;;;;;;;4994681;28;20402;-59
2023/05/28 05:31:42;;;;;;;12.95;6.90;;;;;;;;;;4993289;28;20054;-61
2023/05/28 05:34:07;;;;;;;12.35;6.65;;;;;;;;;;4994519;28;20038;-60
2023/05/28 05:36:32;;;;;;;13.05;6.43;;;;;;;;;;4993024;28;20387;-61
2023/05/28 05:38:58;;;;;;;15.18;6.75;;;;;;;;;;4993164;28;20061;-59
2023/05/28 05:41:23;;;;;;;12.85;6.32;;;;;;;;;;4994598;28;20081;-59
2023/05/28 05:43:49;;;;;;;11.70;7.32;;;;;;;;;;4993782;28;20061;-59
2023/05/28 05:46:14;;;;;;;12.07;6.22;;;;;;;;;;4993050;28;20168;-59
2023/05/28 05:48:40;;;;;;;15.02;6.55;;;;;;;;;;4992158;28;20038;-59
2023/05/28 05:51:06;;;;;;;15.38;6.53;;;;;;;;;;4994563;28;20041;-60
2023/05/28 05:53:31;;;;;;;12.27;6.80;;;;;;;;;;4993254;28;20030;-59
2023/05/28 05:55:57;;;;;;;14.43;6.55;;;;;;;;;;4994030;28;20038;-61
2023/05/28 05:58:22;;;;;;;15.68;6.72;;;;;;;;;;4992120;28;20038;-61
2023/05/28 06:00:47;;;;;;;12.18;6.45;;;;;;;;;;4993217;28;20529;-62
2023/05/28 06:03:14;;;;;;;15.40;6.68;;;;;;;;;;4992790;28;20036;-61
2023/05/28 06:05:39;;;;;;;12.27;6.10;;;;;;;;;;4992877;28;20402;-59
2023/05/28 06:08:05;;;;;;;11.52;6.20;;;;;;;;;;4993051;28;20042;-59
2023/05/28 06:10:30;;;;;;;13.73;6.28;;;;;;;;;;4993126;28;20039;-62
2023/05/28 06:12:56;;;;;;;13.80;6.28;;;;;;;;;;4992804;28;20454;-60
2023/05/28 06:15:22;;;;;;;10.98;6.22;;;;;;;;;;4992492;28;20531;-59
2023/05/28 06:17:48;;;;;;;12.85;6.60;;;;;;;;;;4985076;28;20042;-60
2023/05/28 06:20:13;;;;;;;15.02;6.70;;;;;;;;;;4993717;28;20446;-62
2023/05/28 06:22:39;;;;;;;11.18;6.50;;;;;;;;;;4992992;28;20038;-61
2023/05/28 06:25:06;;;;;;;14.07;6.70;;;;;;;;;;4993445;28;20093;-60
2023/05/28 06:27:32;;;;;;;13.45;6.90;;;;;;;;;;4990937;28;20121;-60
2023/05/28 06:29:57;;;;;;;10.88;6.50;;;;;;;;;;4992541;28;20116;-61
2023/05/28 06:32:23;;;;;;;9.90;6.07;;;;;;;;;;4993482;28;20030;-61
2023/05/28 06:34:48;;;;;;;11.55;6.20;;;;;;;;;;4992536;28;20031;-61
2023/05/28 06:37:14;;;;;;;12.77;6.10;;;;;;;;;;4991561;28;20055;-61
2023/05/28 06:39:39;;;;;;;11.02;5.63;;;;;;;;;;4992297;28;20093;-61
2023/05/28 06:42:05;;;;;;;10.77;5.75;;;;;;;;;;4993519;28;20453;-61
2023/05/28 06:44:31;;;;;;;13.07;5.72;;;;;;;;;;4992288;28;20030;-60
2023/05/28 06:46:56;;;;;;;12.23;6.07;;;;;;;;;;4989339;28;20053;-61
2023/05/28 06:49:22;;;;;;;10.30;5.80;;;;;;;;;;4992931;28;20036;-61
2023/05/28 06:51:47;;;;;;;10.45;5.82;;;;;;;;;;4992530;28;20538;-60
2023/05/28 06:54:13;;;;;;;13.50;5.45;;;;;;;;;;4993098;28;20030;-60
2023/05/28 06:56:39;;;;;;;10.98;5.50;;;;;;;;;;4992321;28;20100;-61
2023/05/28 06:59:04;;;;;;;11.73;6.10;;;;;;;;;;4989836;28;20452;-61
2023/05/28 07:01:30;;;;;;;10.77;5.63;;;;;;;;;;4992506;28;20113;-60
2023/05/28 07:03:55;;;;;;;12.90;6.38;;;;;;;;;;4992414;28;20037;-61
2023/05/28 07:06:21;;;;;;;12.38;5.78;;;;;;;;;;4992912;28;20387;-61
2023/05/28 07:08:46;;;;;;;11.00;5.38;;;;;;;;;;4989614;28;20105;-61
2023/05/28 07:11:12;;;;;;;8.98;4.93;;;;;;;;;;4992474;28;20069;-61
2023/05/28 07:13:38;;;;;;;9.45;5.30;;;;;;;;;;4991578;28;20379;-61
2023/05/28 07:16:05;;;;;;;9.15;4.88;;;;;;;;;;4991078;28;20026;-61
2023/05/28 07:18:30;;;;;;;12.57;4.82;;;;;;;;;;4979689;28;20037;-62
2023/05/28 07:20:55;;;;;;;11.10;5.28;;;;;;;;;;4990057;28;20403;-61
2023/05/28 07:23:21;;;;;;;8.45;4.72;;;;;;;;;;4992588;28;20030;-60
2023/05/28 07:25:47;;;;;;;9.00;4.55;;;;;;;;;;4990567;28;20463;-62
2023/05/28 07:28:12;;;;;;;11.32;4.70;;;;;;;;;;4990151;28;20030;-62
2023/05/28 07:30:37;;;;;;;10.50;4.70;;;;;;;;;;4991528;28;20092;-60
2023/05/28 07:33:03;;;;;;;12.95;4.95;;;;;;;;;;4990787;28;20097;-60
2023/05/28 07:35:28;;;;;;;8.95;4.20;;;;;;;;;;4990302;28;20041;-60
2023/05/28 07:37:55;;;;;;;12.32;4.43;;;;;;;;;;4989044;28;20230;-61
2023/05/28 07:40:20;;;;;;;11.10;4.53;;;;;;;;;;4992152;28;20133;-61
2023/05/28 07:42:45;;;;;;;9.80;4.38;;;;;;;;;;4974775;28;20129;-61
2023/05/28 07:45:11;;;;;;;11.65;4.90;;;;;;;;;;4986388;28;20463;-61
2023/05/28 07:47:36;;;;;;;11.88;4.90;;;;;;;;;;4986234;28;20038;-62
2023/05/28 07:50:04;;;;;;;10.50;5.32;;;;;;;;;;4988877;28;20467;-62
2023/05/28 07:52:29;;;;;;;11.55;4.70;;;;;;;;;;4991405;28;20480;-61
2023/05/28 07:54:58;;;;;;;11.52;4.30;;;;;;;;;;4990311;28;20114;-61
2023/05/28 07:57:24;;;;;;;7.68;3.97;;;;;;;;;;4992417;28;20026;-60
2023/05/28 07:59:50;;;;;;;7.90;3.55;;;;;;;;;;4991466;28;20042;-61
2023/05/28 08:02:16;;;;;;;11.70;4.10;;;;;;;;;;4992004;28;20086;-61
2023/05/28 08:04:41;;;;;;;9.60;4.32;;;;;;;;;;4989480;28;20477;-62
2023/05/28 08:07:07;;;;;;;10.20;4.20;;;;;;;;;;4989684;28;20065;-61
2023/05/28 08:09:33;;;;;;;11.07;4.15;;;;;;;;;;4992174;28;20134;-61
2023/05/28 08:12:01;;;;;;;10.77;3.85;;;;;;;;;;4990193;28;20379;-62
2023/05/28 08:14:27;;;;;;;7.28;3.72;;;;;;;;;;4992047;28;20035;-62
2023/05/28 08:16:52;;;;;;;8.30;4.03;;;;;;;;;;4988291;28;20031;-62
2023/05/28 08:19:18;;;;;;;8.40;3.67;;;;;;;;;;4987465;28;20041;-61
2023/05/28 08:21:44;;;;;;;10.35;4.00;;;;;;;;;;4987045;28;20061;-62
2023/05/28 08:24:10;;;;;;;8.07;3.83;;;;;;;;;;4991473;28;20471;-62
2023/05/28 08:26:36;;;;;;;10.00;3.67;;;;;;;;;;4992838;28;20029;-61
2023/05/28 08:29:03;;;;;;;9.25;4.00;;;;;;;;;;4995977;28;20034;-60
2023/05/28 08:31:28;;;;;;;8.73;4.10;;;;;;;;;;4995737;28;20027;-62
2023/05/28 08:33:54;;;;;;;7.35;3.40;;;;;;;;;;4981122;28;20166;-60
2023/05/28 08:36:20;;;;;;;10.35;3.97;;;;;;;;;;4982182;28;20085;-59
2023/05/28 08:38:45;;;;;;;9.80;3.40;;;;;;;;;;4982862;28;20101;-61
2023/05/28 08:41:12;;;;;;;7.25;3.20;;;;;;;;;;4995371;28;20084;-60
2023/05/28 08:43:37;;;;;;;7.85;3.63;;;;;;;;;;4994982;28;20060;-61
2023/05/28 08:46:03;;;;;;;6.53;3.35;;;;;;;;;;4994102;28;20460;-60
2023/05/28 08:48:33;;;;;;;7.45;3.13;;;;;;;;;;4995110;28;20571;-60
2023/05/28 08:50:59;;;;;;;7.13;3.38;;;;;;;;;;4994571;28;20967;-60
2023/05/28 08:53:29;;;;;;;6.35;3.35;;;;;;;;;;4994424;28;20038;-60
2023/05/28 08:55:55;;;;;;;6.25;2.97;;;;;;;;;;4994059;28;20460;-60
2023/05/28 08:58:20;;;;;;;6.85;3.42;;;;;;;;;;4995100;28;20042;-60
2023/05/28 09:00:50;;;;;;;9.73;3.30;;;;;;;;;;4994092;28;20034;-60
2023/05/28 09:03:16;;;;;;;6.90;3.20;;;;;;;;;;4995239;28;20084;-62
2023/05/28 09:05:42;;;;;;;7.47;3.30;;;;;;;;;;4991742;28;20467;-62
2023/05/28 09:08:09;;;;;;;7.57;3.40;;;;;;;;;;4995137;28;20360;-61
2023/05/28 09:10:39;;;;;;;8.98;3.42;;;;;;;;;;4994418;28;20045;-61
2023/05/28 09:13:05;;;;;;;6.28;3.08;;;;;;;;;;4994100;28;20038;-61
2023/05/28 09:15:31;;;;;;;9.05;3.28;;;;;;;;;;4994545;28;20035;-61
2023/05/28 09:17:59;;;;;;;7.30;3.40;;;;;;;;;;4994159;28;20820;-61
2023/05/28 09:20:25;;;;;;;7.45;3.60;;;;;;;;;;4994764;28;20460;-61
2023/05/28 09:23:06;;;;;;;7.78;3.58;;;;;;;;;;4994048;28;20038;-61
2023/05/28 09:25:35;;;;;;;7.28;3.20;;;;;;;;;;4993670;28;20041;-61
2023/05/28 09:28:01;;;;;;;7.18;3.17;;;;;;;;;;4992698;28;20304;-61
2023/05/28 09:30:29;;;;;;;8.95;3.28;;;;;;;;;;4994667;28;20345;-61
2023/05/28 09:33:02;;;;;;;7.93;3.15;;;;;;;;;;4993847;28;20030;-61
2023/05/28 09:35:29;;;;;;;5.22;3.17;;;;;;;;;;4993299;28;20030;-61
2023/05/28 09:38:07;;;;;;;8.13;3.20;;;;;;;;;;4985277;28;20423;-61
2023/05/28 09:40:41;;;;;;;7.60;3.22;;;;;;;;;;4994550;28;20439;-61
2023/05/28 09:43:07;;;;;;;6.95;3.22;;;;;;;;;;4994308;28;20039;-61
2023/05/28 09:45:33;;;;;;;7.47;3.13;;;;;;;;;;4994391;28;20034;-62
2023/05/28 09:47:59;;;;;;;8.75;3.60;;;;;;;;;;4993604;28;20092;-61
2023/05/28 09:50:24;;;;;;;8.38;3.20;;;;;;;;;;4994359;28;20034;-60
2023/05/28 09:52:53;;;;;;;7.28;3.40;;;;;;;;;;4993515;28;20090;-60
2023/05/28 09:55:21;;;;;;;8.27;3.45;;;;;;;;;;4993272;28;20065;-60
2023/05/28 09:58:04;;;;;;;7.25;3.28;;;;;;;;;;4993401;28;20030;-60
2023/05/28 10:00:33;;;;;;;8.82;3.58;;;;;;;;;;4993819;28;20418;-61
2023/05/28 10:03:19;;;;;;;7.90;3.20;;;;;;;;;;4992033;28;20081;-61
2023/05/28 10:05:51;;;;;;;8.52;3.45;;;;;;;;;;4992713;28;20050;-62
2023/05/28 10:08:18;;;;;;;8.07;3.70;;;;;;;;;;4993822;28;20030;-60
2023/05/28 10:10:45;;;;;;;9.18;3.42;;;;;;;;;;4992950;28;20058;-61
2023/05/28 10:13:12;;;;;;;7.53;3.60;;;;;;;;;;4993895;28;20089;-60
2023/05/28 10:15:38;;;;;;;8.18;3.55;;;;;;;;;;4993844;28;20121;-61
2023/05/28 10:18:06;;;;;;;7.75;3.55;;;;;;;;;;4993017;28;20066;-60
2023/05/28 10:20:31;;;;;;;9.07;3.42;;;;;;;;;;4989932;28;20088;-60
2023/05/28 10:22:57;;;;;;;9.80;3.45;;;;;;;;;;4992688;28;20038;-60
2023/05/28 10:25:23;;;;;;;9.15;3.33;;;;;;;;;;4993581;28;20038;-60
2023/05/28 10:27:49;;;;;;;7.68;3.30;;;;;;;;;;4992790;28;20026;-60
2023/05/28 10:30:34;;;;;;;10.68;3.67;;;;;;;;;;4993594;28;20394;-60
2023/05/28 10:32:59;;;;;;;12.30;3.72;;;;;;;;;;4992975;28;20046;-61
2023/05/28 10:35:25;;;;;;;6.95;3.42;;;;;;;;;;4992540;28;20022;-61
2023/05/28 10:38:02;;;;;;;7.45;3.45;;;;;;;;;;4990102;28;20038;-62
2023/05/28 10:40:28;;;;;;;8.85;3.60;;;;;;;;;;4992936;28;20400;-61
2023/05/28 10:42:53;;;;;;;7.50;3.25;;;;;;;;;;4992494;28;20057;-61
2023/05/28 10:45:19;;;;;;;8.05;3.15;;;;;;;;;;4993317;28;20535;-62
2023/05/28 10:47:53;;;;;;;8.32;3.20;;;;;;;;;;4992610;28;20117;-60
2023/05/28 10:50:19;;;;;;;6.13;3.17;;;;;;;;;;4992002;28;20058;-62
2023/05/28 10:53:10;;;;;;;8.25;3.83;;;;;;;;;;4992733;28;20034;-61
2023/05/28 10:55:49;;;;;;;8.73;3.33;;;;;;;;;;4992686;28;20042;-62
2023/05/28 10:58:24;;;;;;;6.45;3.22;;;;;;;;;;4993020;28;20031;-61
2023/05/28 11:00:49;;;;;;;9.10;3.40;;;;;;;;;;4992175;28;20045;-61
2023/05/28 11:03:15;;;;;;;8.27;3.60;;;;;;;;;;4991734;28;20034;-61
2023/05/28 11:05:40;;;;;;;5.75;3.53;;;;;;;;;;4992624;28;20041;-62
2023/05/28 11:08:06;;;;;;;5.75;3.10;;;;;;;;;;4990845;28;20645;-61
2023/05/28 11:10:33;;;;;;;6.47;3.35;;;;;;;;;;4992891;28;20081;-61
2023/05/28 11:12:59;;;;;;;6.80;3.47;;;;;;;;;;4991899;28;20076;-60
2023/05/28 11:15:25;;;;;;;7.65;3.20;;;;;;;;;;4992843;28;20081;-63
2023/05/28 11:17:50;;;;;;;7.88;3.10;;;;;;;;;;4991802;28;20034;-61
2023/05/28 11:20:17;;;;;;;7.55;3.33;;;;;;;;;;4990993;28;20080;-61
2023/05/28 11:22:42;;;;;;;8.07;3.40;;;;;;;;;;4992193;28;20037;-63
2023/05/28 11:25:09;;;;;;;7.93;3.40;;;;;;;;;;4991861;28;20800;-61
2023/05/28 11:27:36;;;;;;;7.65;3.13;;;;;;;;;;4992627;28;20037;-61
2023/05/28 11:30:17;;;;;;;7.60;3.38;;;;;;;;;;4991821;28;20042;-64
2023/05/28 11:32:42;;;;;;;;;;;;;;;;;;4978135;28;20038;-63
2023/05/28 11:35:13;;;;;;;7.63;2.97;;;;;;;;;;4986984;28;19940;-61
2023/05/28 11:37:40;;;;;;;6.85;3.13;;;;;;;;;;4992511;28;20380;-61
2023/05/28 11:40:11;;;;;;;7.25;3.17;;;;;;;;;;4991519;28;20065;-61
2023/05/28 11:42:41;;;;;;;6.88;3.25;;;;;;;;;;4992464;28;20046;-61
2023/05/28 11:45:07;;;;;;;;;;;;;;;;;;4991875;28;20044;-61
2023/05/28 11:47:34;;;;;;;6.28;3.10;;;;;;;;;;4992353;28;19913;-61
2023/05/28 11:50:06;;;;;;;9.52;3.20;;;;;;;;;;4989637;28;20042;-62
2023/05/28 11:52:31;;;;;;;6.47;2.90;;;;;;;;;;4991968;28;20042;-61
2023/05/28 11:54:58;;;;;;;7.13;3.20;;;;;;;;;;4991379;28;20475;-61
2023/05/28 11:57:28;;;;;;;5.50;2.83;;;;;;;;;;4992015;28;20038;-61
2023/05/28 12:00:12;;;;;;;7.35;3.33;;;;;;;;;;4991460;28;20122;-61
2023/05/28 12:02:52;;;;;;;9.73;3.20;;;;;;;;;;4995230;28;20034;-61
2023/05/28 12:05:18;;;;;;;5.63;3.03;;;;;;;;;;4996677;28;20464;-61
2023/05/28 12:07:54;;;;;;;6.78;3.10;;;;;;;;;;4996151;28;20045;-61
2023/05/28 12:10:21;;;;;;;8.77;3.20;;;;;;;;;;4996009;28;20089;-61
2023/05/28 12:12:52;;;;;;;5.50;2.90;;;;;;;;;;4995697;28;20545;-61
2023/05/28 12:15:21;;;;;;;6.28;2.97;;;;;;;;;;4996176;28;20040;-61
2023/05/28 12:17:56;;;;;;;6.00;2.90;;;;;;;;;;4995168;28;20460;-60
2023/05/28 12:20:21;;;;;;;6.32;3.10;;;;;;;;;;4994515;28;20125;-61
2023/05/28 12:22:59;;;;;;;7.93;3.00;;;;;;;;;;4985375;28;20547;-61
2023/05/28 12:25:25;;;;;;;7.45;3.00;;;;;;;;;;4991509;28;20069;-60
2023/05/28 12:27:50;;;;;;;6.57;2.70;;;;;;;;;;4993895;28;20034;-61
2023/05/28 12:30:16;;;;;;;4.28;2.55;;;;;;;;;;4995289;28;20118;-61
2023/05/28 12:32:41;;;;;;;5.35;2.75;;;;;;;;;;4995869;28;20043;-60
2023/05/28 12:35:08;;;;;;;6.28;3.13;;;;;;;;;;4992882;28;20100;-60
2023/05/28 12:37:33;;;;;;;5.85;2.80;;;;;;;;;;4983806;28;20086;-61
2023/05/28 12:39:59;;;;;;;6.43;3.00;;;;;;;;;;4974993;28;20062;-62
2023/05/28 12:42:24;;;;;;;8.13;3.00;;;;;;;;;;4982378;28;20038;-62
2023/05/28 12:44:50;;;;;;;15.30;3.30;;;;;;;;;;4993966;28;20034;-62
2023/05/28 12:47:15;;;;;;;5.25;2.97;;;;;;;;;;4993627;28;20038;-62
2023/05/28 12:49:41;;;;;;;8.88;2.90;;;;;;;;;;4995607;28;20038;-62
2023/05/28 12:52:06;;;;;;;6.97;2.75;;;;;;;;;;4993935;28;20524;-62
2023/05/28 12:54:33;;;;;;;6.72;3.10;;;;;;;;;;4991269;28;20459;-60
2023/05/28 12:56:59;;;;;;;5.72;2.70;;;;;;;;;;4988658;28;20038;-60
2023/05/28 12:59:26;;;;;;;8.55;3.17;;;;;;;;;;4984309;28;20041;-60
2023/05/28 13:01:52;;;;;;;5.97;3.00;;;;;;;;;;4991238;28;20038;-61
2023/05/28 13:04:18;;;;;;;5.13;2.78;;;;;;;;;;4986200;28;20041;-60
2023/05/28 13:06:44;;;;;;;6.13;3.10;;;;;;;;;;4976313;28;20056;-60
2023/05/28 13:09:12;;;;;;;8.40;2.95;;;;;;;;;;4974510;28;20138;-61
2023/05/28 13:11:39;;;;;;;7.15;2.92;;;;;;;;;;4974910;28;20038;-61
2023/05/28 13:14:04;;;;;;;8.32;2.90;;;;;;;;;;4989538;28;20069;-62
2023/05/28 13:16:30;;;;;;;6.75;3.08;;;;;;;;;;4994627;28;20479;-61
2023/05/28 13:18:55;;;;;;;5.57;2.90;;;;;;;;;;4991625;28;20383;-61
2023/05/28 13:21:21;;;;;;;5.55;3.03;;;;;;;;;;4994910;28;20113;-61
2023/05/28 13:23:48;;;;;;;5.18;2.95;;;;;;;;;;4992849;28;20026;-61
2023/05/28 13:26:14;;;;;;;7.28;3.40;;;;;;;;;;4993285;28;20620;-62
2023/05/28 13:28:39;;;;;;;6.78;2.80;;;;;;;;;;4994667;28;20027;-61
2023/05/28 13:31:05;;;;;;;6.60;3.10;;;;;;;;;;4992999;28;20113;-61
2023/05/28 13:33:30;;;;;;;5.88;2.78;;;;;;;;;;4994310;28;20076;-62
2023/05/28 13:35:55;;;;;;;6.22;2.80;;;;;;;;;;4991176;28;20305;-61
2023/05/28 13:38:21;;;;;;;5.63;2.80;;;;;;;;;;4993905;28;20121;-61
2023/05/28 13:40:47;;;;;;;6.60;2.97;;;;;;;;;;4993416;28;20145;-62
2023/05/28 13:43:13;;;;;;;4.90;2.72;;;;;;;;;;4987931;28;20118;-62
2023/05/28 13:45:40;;;;;;;5.55;2.80;;;;;;;;;;4993535;28;20046;-61
2023/05/28 13:48:06;;;;;;;7.35;2.88;;;;;;;;;;4993491;28;20121;-61
2023/05/28 13:50:33;;;;;;;5.00;2.63;;;;;;;;;;4993207;28;20451;-61
2023/05/28 13:52:58;;;;;;;7.78;3.05;;;;;;;;;;4991557;28;20069;-61
2023/05/28 13:55:23;;;;;;;4.88;2.75;;;;;;;;;;4992440;28;20138;-62
2023/05/28 13:57:49;;;;;;;9.10;3.20;;;;;;;;;;4992449;28;20043;-62
2023/05/28 14:00:17;;;;;;;9.88;3.10;;;;;;;;;;4993385;28;20057;-62
2023/05/28 14:02:42;;;;;;;6.15;2.97;;;;;;;;;;4992068;28;20431;-62
2023/05/28 14:05:08;;;;;;;6.30;2.90;;;;;;;;;;4993102;28;20101;-61
2023/05/28 14:07:33;;;;;;;7.32;2.95;;;;;;;;;;4993408;28;20038;-61
2023/05/28 14:09:58;;;;;;;6.43;3.13;;;;;;;;;;4991095;28;20030;-62
2023/05/28 14:12:24;;;;;;;7.13;3.20;;;;;;;;;;4992499;28;20527;-62
2023/05/28 14:14:49;;;;;;;4.95;2.95;;;;;;;;;;4993778;28;20031;-61
2023/05/28 14:17:15;;;;;;;6.88;3.05;;;;;;;;;;4992811;28;20053;-62
2023/05/28 14:19:40;;;;;;;5.53;2.75;;;;;;;;;;4993822;28;20426;-61
2023/05/28 14:22:06;;;;;;;6.57;2.90;;;;;;;;;;4978940;28;20037;-62
2023/05/28 14:24:31;;;;;;;6.60;2.72;;;;;;;;;;4981333;28;20034;-62
2023/05/28 14:26:56;;;;;;;6.22;3.08;;;;;;;;;;4993195;28;20432;-62
2023/05/28 14:29:22;;;;;;;5.90;3.17;;;;;;;;;;4993780;28;20038;-62
2023/05/28 14:31:47;;;;;;;7.03;2.85;;;;;;;;;;4993590;28;20066;-62